createdAt,value
2023-03-05T00:01:42.964Z,355.43
2023-03-05T00:06:50.184Z,355.75
2023-03-05T00:11:57.447Z,355.83
2023-03-05T00:17:04.623Z,355.93
2023-03-05T00:22:11.918Z,355.96
2023-03-05T00:27:19.086Z,355.94
2023-03-05T00:32:26.568Z,356.22
2023-03-05T00:37:33.798Z,356.55
2023-03-05T00:42:41.290Z,356.90
2023-03-05T00:47:49.100Z,357.20
2023-03-05T00:52:56.643Z,356.55
2023-03-05T00:58:04.061Z,356.99
2023-03-05T01:03:11.567Z,357.58
2023-03-05T01:08:19.187Z,358.63
2023-03-05T01:13:26.781Z,358.78
2023-03-05T01:18:34.302Z,359.08
2023-03-05T01:23:41.730Z,359.47
2023-03-05T01:28:49.082Z,359.72
2023-03-05T01:33:56.454Z,359.88
2023-03-05T01:39:03.825Z,360.32
2023-03-05T01:44:26.557Z,360.40
2023-03-05T01:49:33.939Z,361.06
2023-03-05T01:54:41.480Z,361.51
2023-03-05T01:59:48.940Z,361.95
2023-03-05T02:04:56.158Z,362.66
2023-03-05T02:10:03.467Z,363.12
2023-03-05T02:15:10.631Z,363.57
2023-03-05T02:20:17.809Z,364.24
2023-03-05T02:25:24.990Z,364.54
2023-03-05T02:30:32.162Z,364.80
2023-03-05T02:35:39.417Z,365.38
2023-03-05T02:40:46.560Z,365.80
2023-03-05T02:45:53.792Z,365.67
2023-03-05T02:51:00.880Z,365.89
2023-03-05T02:56:08.169Z,366.13
2023-03-05T03:01:15.427Z,366.74
2023-03-05T03:06:22.553Z,367.27
2023-03-05T03:11:29.858Z,367.66
2023-03-05T03:16:37.216Z,367.87
2023-03-05T03:21:44.392Z,368.61
2023-03-05T03:26:51.800Z,368.55
2023-03-05T03:31:59.149Z,368.99
2023-03-05T03:37:06.295Z,369.56
2023-03-05T03:42:13.575Z,370.62
2023-03-05T03:47:20.737Z,370.24
2023-03-05T03:52:27.946Z,370.64
2023-03-05T03:57:35.236Z,370.94
2023-03-05T04:02:42.539Z,371.60
2023-03-05T04:07:49.810Z,371.60
2023-03-05T04:12:57.173Z,372.16
2023-03-05T04:18:04.631Z,372.80
2023-03-05T04:23:12.131Z,373.31
2023-03-05T04:28:19.562Z,373.98
2023-03-05T04:33:26.945Z,373.91
2023-03-05T04:38:34.288Z,374.73
2023-03-05T04:43:41.819Z,374.75
2023-03-05T04:48:49.300Z,374.86
2023-03-05T04:53:56.801Z,375.11
2023-03-05T04:59:04.324Z,375.45
2023-03-05T05:04:12.022Z,375.54
2023-03-05T05:09:24.719Z,375.42
2023-03-05T05:14:36.975Z,376.18
2023-03-05T05:19:44.380Z,376.07
2023-03-05T05:24:54.963Z,376.12
2023-03-05T05:30:02.423Z,376.36
2023-03-05T05:35:09.892Z,376.99
2023-03-05T05:40:17.326Z,377.26
2023-03-05T05:45:25.199Z,377.30
2023-03-05T05:50:32.511Z,376.88
2023-03-05T05:55:40.026Z,377.09
2023-03-05T06:00:52.674Z,376.13
2023-03-05T06:06:05.072Z,376.70
2023-03-05T06:11:18.227Z,376.31
2023-03-05T06:16:24.755Z,376.27
2023-03-05T06:21:35.069Z,376.51
2023-03-05T06:26:43.199Z,376.62
2023-03-05T06:31:50.962Z,377.00
2023-03-05T06:36:58.394Z,377.20
2023-03-05T06:42:06.003Z,377.46
2023-03-05T06:47:13.460Z,377.26
2023-03-05T06:52:20.888Z,377.87
2023-03-05T06:57:28.245Z,378.24
2023-03-05T07:02:35.645Z,378.59
2023-03-05T07:07:42.829Z,379.53
2023-03-05T07:12:50.068Z,379.83
2023-03-05T07:17:57.266Z,379.64
2023-03-05T07:23:04.416Z,379.38
2023-03-05T07:28:11.836Z,378.99
2023-03-05T07:33:19.225Z,379.39
2023-03-05T07:38:26.380Z,379.46
2023-03-05T07:43:33.573Z,379.38
2023-03-05T07:48:40.802Z,379.04
2023-03-05T07:53:47.936Z,379.78
2023-03-05T07:58:55.144Z,379.64
2023-03-05T08:04:02.434Z,379.50
2023-03-05T08:09:09.589Z,380.62
2023-03-05T08:14:16.779Z,380.97
2023-03-05T08:19:24.108Z,381.37
2023-03-05T08:24:31.402Z,382.07
2023-03-05T08:29:38.780Z,382.40
2023-03-05T08:34:46.077Z,382.59
2023-03-05T08:39:53.464Z,382.47
2023-03-05T08:45:00.878Z,383.00
2023-03-05T08:50:08.811Z,383.74
2023-03-05T08:55:16.450Z,383.71
2023-03-05T09:00:27.025Z,384.74
2023-03-05T09:05:37.650Z,385.49
2023-03-05T09:10:46.886Z,385.57
2023-03-05T09:16:03.865Z,385.31
2023-03-05T09:21:09.050Z,385.96
2023-03-05T09:26:16.537Z,386.26
2023-03-05T09:31:30.899Z,386.57
2023-03-05T09:36:47.648Z,387.06
2023-03-05T09:41:55.355Z,387.45
2023-03-05T09:47:06.332Z,388.19
2023-03-05T09:52:11.745Z,388.52
2023-03-05T09:57:18.904Z,389.23
2023-03-05T10:02:26.091Z,389.60
2023-03-05T10:07:33.310Z,390.42
2023-03-05T10:12:40.554Z,390.44
2023-03-05T10:17:47.753Z,390.38
2023-03-05T10:22:55.182Z,391.31
2023-03-05T10:28:02.542Z,390.99
2023-03-05T10:33:09.723Z,391.49
2023-03-05T10:38:16.903Z,391.44
2023-03-05T10:43:24.103Z,392.15
2023-03-05T10:48:31.279Z,392.30
2023-03-05T10:53:38.526Z,393.33
2023-03-05T10:58:45.773Z,393.65
2023-03-05T11:03:53.307Z,394.75
2023-03-05T11:09:00.949Z,395.67
2023-03-05T11:14:08.384Z,395.99
2023-03-05T11:19:15.967Z,396.35
2023-03-05T11:24:23.290Z,396.56
2023-03-05T11:29:30.460Z,396.84
2023-03-05T11:34:37.957Z,397.16
2023-03-05T11:39:45.458Z,397.95
2023-03-05T11:44:52.652Z,398.56
2023-03-05T11:50:00.111Z,399.15
2023-03-05T11:55:07.838Z,400.50
2023-03-05T12:00:15.161Z,401.11
2023-03-05T12:05:22.337Z,402.63
2023-03-05T12:10:29.548Z,403.65
2023-03-05T12:15:36.826Z,404.53
2023-03-05T12:20:44.363Z,405.29
2023-03-05T12:25:51.313Z,405.82
2023-03-05T12:30:58.513Z,406.80
2023-03-05T12:36:05.749Z,407.24
2023-03-05T12:41:12.858Z,407.83
2023-03-05T12:46:20.172Z,408.69
2023-03-05T12:51:27.614Z,409.41
2023-03-05T12:56:34.912Z,410.04
2023-03-05T13:01:42.065Z,410.39
2023-03-05T13:06:49.503Z,410.21
2023-03-05T13:11:56.974Z,410.21
2023-03-05T13:17:04.061Z,410.57
2023-03-05T13:22:11.618Z,411.74
2023-03-05T13:27:18.961Z,411.71
2023-03-05T13:32:26.458Z,412.33
2023-03-05T13:37:34.081Z,413.11
2023-03-05T13:42:42.196Z,412.65
2023-03-05T13:47:49.597Z,413.25
2023-03-05T13:52:59.306Z,413.43
2023-03-05T13:58:04.855Z,413.74
2023-03-05T14:03:13.251Z,414.07
2023-03-05T14:08:21.267Z,414.78
2023-03-05T14:13:28.601Z,415.52
2023-03-05T14:18:35.863Z,415.87
2023-03-05T14:23:43.293Z,416.20
2023-03-05T14:28:50.982Z,415.64
2023-03-05T14:33:58.524Z,416.42
2023-03-05T14:39:06.139Z,417.16
2023-03-05T14:44:13.525Z,418.03
2023-03-05T14:49:20.965Z,417.77
2023-03-05T14:54:28.641Z,417.83
2023-03-05T14:59:35.942Z,419.07
2023-03-05T15:04:43.409Z,419.69
2023-03-05T15:09:51.019Z,419.98
2023-03-05T15:14:58.965Z,420.33
2023-03-05T15:20:06.665Z,421.18
2023-03-05T15:25:14.010Z,421.31
2023-03-05T15:30:21.564Z,422.10
2023-03-05T15:35:29.341Z,422.44
2023-03-05T15:40:36.921Z,422.16
2023-03-05T15:45:44.243Z,422.38
2023-03-05T15:50:51.756Z,423.21
2023-03-05T15:55:59.442Z,424.02
2023-03-05T16:01:07.286Z,424.05
2023-03-05T16:06:15.085Z,424.35
2023-03-05T16:11:22.805Z,424.06
2023-03-05T16:16:30.586Z,424.67
2023-03-05T16:21:37.846Z,424.92
2023-03-05T16:26:45.243Z,425.34
2023-03-05T16:31:52.877Z,425.46
2023-03-05T16:37:00.565Z,426.03
2023-03-05T16:42:08.297Z,426.55
2023-03-05T16:47:16.023Z,426.89
2023-03-05T16:52:23.718Z,427.34
2023-03-05T16:57:31.430Z,427.91
2023-03-05T17:02:39.171Z,428.31
2023-03-05T17:07:46.959Z,428.29
2023-03-05T17:12:54.747Z,428.95
2023-03-05T17:18:02.117Z,428.60
2023-03-05T17:23:09.503Z,428.34
2023-03-05T17:28:17.117Z,428.73
2023-03-05T17:33:25.940Z,428.49
2023-03-05T17:38:33.642Z,427.91
2023-03-05T17:43:41.027Z,428.13
2023-03-05T17:48:48.624Z,427.27
2023-03-05T17:53:56.312Z,427.67
2023-03-05T17:59:03.927Z,427.63
2023-03-05T18:04:11.657Z,428.01
2023-03-05T18:09:19.158Z,428.46
2023-03-05T18:14:26.550Z,428.04
2023-03-05T18:19:33.860Z,428.09
2023-03-05T18:24:41.338Z,428.78
2023-03-05T18:29:49.216Z,428.72
2023-03-05T18:34:56.848Z,429.14
2023-03-05T18:40:04.428Z,429.37
2023-03-05T18:45:12.160Z,429.90
2023-03-05T18:50:19.580Z,429.63
2023-03-05T18:55:26.833Z,429.50
2023-03-05T19:00:34.372Z,429.80
2023-03-05T19:05:42.118Z,430.41
2023-03-05T19:10:49.834Z,430.57
2023-03-05T19:15:57.433Z,431.04
2023-03-05T19:21:05.064Z,431.03
2023-03-05T19:26:12.663Z,431.17
2023-03-05T19:31:20.337Z,431.60
2023-03-05T19:36:27.915Z,431.97
2023-03-05T19:41:35.491Z,432.62
2023-03-05T19:46:43.213Z,432.83
2023-03-05T19:51:50.954Z,433.20
2023-03-05T19:56:58.652Z,433.27
2023-03-05T20:02:06.377Z,433.62
2023-03-05T20:07:14.007Z,433.60
2023-03-05T20:12:21.589Z,433.31
2023-03-05T20:17:29.321Z,433.76
2023-03-05T20:22:36.951Z,434.40
2023-03-05T20:27:44.643Z,434.83
2023-03-05T20:32:52.100Z,434.77
2023-03-05T20:37:59.399Z,435.32
2023-03-05T20:43:06.946Z,435.55
2023-03-05T20:48:14.590Z,435.34
2023-03-05T20:53:22.364Z,435.43
2023-03-05T20:58:30.132Z,435.59
2023-03-05T21:03:37.856Z,435.41
2023-03-05T21:08:45.513Z,435.38
2023-03-05T21:13:55.945Z,435.86
2023-03-05T21:19:03.660Z,435.95
2023-03-05T21:24:11.809Z,436.76
2023-03-05T21:29:20.422Z,437.04
2023-03-05T21:34:28.136Z,437.63
2023-03-05T21:39:35.524Z,438.01
2023-03-05T21:44:43.060Z,438.42
2023-03-05T21:49:50.481Z,438.82
2023-03-05T21:54:57.699Z,438.72
2023-03-05T22:00:04.939Z,439.25
2023-03-05T22:05:12.195Z,439.25
2023-03-05T22:10:19.438Z,439.45
2023-03-05T22:15:26.680Z,439.07
2023-03-05T22:20:34.194Z,439.56
2023-03-05T22:25:41.487Z,439.98
2023-03-05T22:30:48.789Z,440.26
2023-03-05T22:35:55.982Z,440.45
2023-03-05T22:41:03.205Z,440.53
2023-03-05T22:46:10.524Z,441.23
2023-03-05T22:51:17.772Z,440.98
2023-03-05T22:56:24.981Z,442.04
2023-03-05T23:01:32.164Z,442.10
2023-03-05T23:06:39.463Z,442.60
2023-03-05T23:11:46.779Z,442.65
2023-03-05T23:16:54.013Z,443.27
2023-03-05T23:22:01.335Z,443.64
2023-03-05T23:27:08.586Z,444.22
2023-03-05T23:32:15.818Z,444.15
2023-03-05T23:37:22.947Z,444.45
2023-03-05T23:42:30.168Z,444.39
2023-03-05T23:47:37.365Z,444.61
2023-03-05T23:52:44.605Z,444.60
2023-03-05T23:57:51.836Z,444.98
